Time;durP1;ratioP1;P1;durP2;ratioP2;P2;SDS_P1;SDS_P2;PMS_P1;PMS_P2;Temp;Humidity;BMP_temperature;BMP_pressure;BME280_temperature;BME280_humidity;BME280_pressure;Samples;Min_cycle;Max_cycle;Signal;HPM_P1;HPM_P2
2021/08/25 00:02:04;;;;;;;9.63;6.22;;;;;;;23.68;38.44;99312.31;5093157;28;20081;-81
2021/08/25 00:04:29;;;;;;;7.88;6.13;;;;;;;23.63;38.50;99334.69;5092938;28;20020;-81
2021/08/25 00:06:54;;;;;;;7.18;5.82;;;;;;;23.45;38.69;99311.75;5093017;28;20028;-80
2021/08/25 00:09:20;;;;;;;7.70;5.50;;;;;;;23.85;38.78;99387.56;5093310;28;20028;-81
2021/08/25 00:11:45;;;;;;;6.30;5.32;;;;;;;23.54;38.96;99344.34;5093464;28;20488;-81
2021/08/25 00:14:11;;;;;;;7.05;4.95;;;;;;;23.80;38.92;99374.09;5092948;28;20107;-80
2021/08/25 00:16:36;;;;;;;5.53;5.03;;;;;;;23.26;38.88;99283.69;5092944;28;20485;-81
2021/08/25 00:19:02;;;;;;;5.32;4.72;;;;;;;23.81;39.18;99387.31;5092908;28;20027;-81
2021/08/25 00:21:28;;;;;;;5.13;4.63;;;;;;;23.71;38.96;99354.91;5091469;28;20443;-81
2021/08/25 00:23:53;;;;;;;5.55;5.03;;;;;;;23.31;39.11;99302.56;5092709;28;20024;-75
2021/08/25 00:26:19;;;;;;;7.78;5.20;;;;;;;23.46;39.06;99331.41;5092539;28;20024;-74
2021/08/25 00:28:44;;;;;;;6.53;5.45;;;;;;;23.69;39.17;99370.53;5092705;28;20385;-75
2021/08/25 00:31:11;;;;;;;8.63;5.03;;;;;;;23.40;39.19;99329.78;5092736;28;20027;-74
2021/08/25 00:33:36;;;;;;;8.13;5.05;;;;;;;23.63;39.41;99361.66;5092568;28;20016;-75
2021/08/25 00:36:02;;;;;;;5.88;4.97;;;;;;;23.65;39.26;99374.84;5092560;28;20024;-74
2021/08/25 00:38:27;;;;;;;7.55;4.72;;;;;;;23.10;39.26;99306.28;5091868;28;20031;-75
2021/08/25 00:40:52;;;;;;;7.70;5.18;;;;;;;23.08;39.53;99341.56;5092470;28;20488;-74
2021/08/25 00:43:18;;;;;;;6.10;4.68;;;;;;;22.75;39.55;99283.50;5092336;28;20016;-74
2021/08/25 00:45:44;;;;;;;5.25;4.47;;;;;;;23.29;39.53;99387.41;5090975;28;20505;-75
2021/08/25 00:48:12;;;;;;;4.97;4.47;;;;;;;23.08;39.68;99346.13;5092159;28;20016;-75
2021/08/25 00:50:39;;;;;;;6.72;5.10;;;;;;;22.95;39.81;99333.13;5092342;28;20102;-75
2021/08/25 00:53:08;;;;;;;5.40;4.90;;;;;;;22.74;39.97;99316.88;5091047;28;20467;-75
2021/08/25 00:55:37;;;;;;;5.93;5.05;;;;;;;22.80;39.96;99328.50;5092257;28;20016;-75
2021/08/25 00:58:03;;;;;;;6.22;5.00;;;;;;;22.98;40.21;99364.91;5092141;28;20020;-75
2021/08/25 01:00:28;;;;;;;5.70;4.50;;;;;;;22.44;40.32;99301.41;5091897;28;20020;-74
2021/08/25 01:03:01;;;;;;;8.27;4.60;;;;;;;22.87;40.55;99365.97;5091925;28;20043;-75
2021/08/25 01:05:30;;;;;;;5.43;4.90;;;;;;;22.80;40.60;99356.25;5091855;28;20389;-74
2021/08/25 01:08:01;;;;;;;7.25;5.10;;;;;;;22.50;40.79;99310.31;5091914;28;20057;-74
2021/08/25 01:10:28;;;;;;;4.90;4.40;;;;;;;22.62;40.80;99316.28;5091894;28;20020;-75
2021/08/25 01:12:56;;;;;;;7.72;4.80;;;;;;;22.49;40.89;99304.13;5090596;28;20072;-75
2021/08/25 01:15:21;;;;;;;5.28;4.50;;;;;;;22.71;40.75;99346.19;5090565;28;20020;-74
2021/08/25 01:17:50;;;;;;;6.00;4.40;;;;;;;22.67;41.09;99355.88;5091887;28;20035;-75
2021/08/25 01:20:16;;;;;;;5.78;4.60;;;;;;;22.02;40.99;99252.97;5091862;28;20111;-75
2021/08/25 01:22:42;;;;;;;5.75;4.68;;;;;;;22.33;41.16;99305.13;5091752;28;20024;-75
2021/08/25 01:25:09;;;;;;;4.90;4.38;;;;;;;22.60;41.31;99349.91;5091859;28;20028;-75
2021/08/25 01:27:38;;;;;;;5.95;4.80;;;;;;;22.61;41.37;99346.16;5091849;28;20026;-74
2021/08/25 01:30:05;;;;;;;10.20;4.95;;;;;;;22.56;41.30;99344.25;5091672;28;20564;-74
2021/08/25 01:32:35;;;;;;;5.65;4.82;;;;;;;22.60;41.54;99336.47;5090304;28;20027;-74
2021/08/25 01:35:01;;;;;;;5.35;4.72;;;;;;;22.38;41.34;99304.34;5091341;28;20081;-74
2021/08/25 01:37:27;;;;;;;5.40;4.90;;;;;;;22.54;41.45;99322.16;5091359;28;20032;-76
2021/08/25 01:39:53;;;;;;;5.63;4.95;;;;;;;22.48;41.66;99325.91;5091480;28;20077;-75
2021/08/25 01:42:20;;;;;;;6.30;4.80;;;;;;;22.19;41.76;99295.84;5090047;28;20467;-74
2021/08/25 01:44:47;;;;;;;6.30;4.63;;;;;;;22.39;41.92;99332.84;5091473;28;20412;-75
2021/08/25 01:47:13;;;;;;;5.25;4.65;;;;;;;22.44;41.92;99346.34;5091527;28;20019;-75
2021/08/25 01:49:39;;;;;;;6.75;4.65;;;;;;;21.63;42.15;99224.75;5090612;28;20073;-75
2021/08/25 01:52:05;;;;;;;7.05;4.72;;;;;;;22.38;41.98;99347.38;5089725;28;20020;-74
2021/08/25 01:54:31;;;;;;;5.28;4.78;;;;;;;21.89;41.74;99293.75;5091079;28;20120;-75
2021/08/25 01:56:56;;;;;;;5.10;4.35;;;;;;;22.00;42.48;99319.63;5091215;28;20099;-74
2021/08/25 01:59:22;;;;;;;6.30;4.80;;;;;;;22.07;42.77;99346.31;5091346;28;20585;-75
2021/08/25 02:01:47;;;;;;;7.78;4.97;;;;;;;22.01;42.89;99350.00;5091315;28;20057;-74
2021/08/25 02:04:13;;;;;;;7.75;4.90;;;;;;;21.87;43.02;99349.63;5091274;28;20024;-74
2021/08/25 02:06:38;;;;;;;9.75;4.85;;;;;;;21.82;43.21;99336.97;5091351;28;20055;-74
2021/08/25 02:09:04;;;;;;;9.23;5.25;;;;;;;21.48;43.33;99292.59;5091327;28;20031;-75
2021/08/25 02:11:29;;;;;;;8.50;4.90;;;;;;;21.13;43.27;99233.97;5089738;28;20039;-74
2021/08/25 02:13:54;;;;;;;5.90;4.57;;;;;;;21.79;43.39;99345.53;5091173;28;20055;-74
2021/08/25 02:16:20;;;;;;;8.32;4.68;;;;;;;21.76;43.56;99356.81;5091128;28;20024;-74
2021/08/25 02:18:46;;;;;;;10.73;5.80;;;;;;;21.84;43.68;99353.66;5091212;28;20164;-74
2021/08/25 02:21:12;;;;;;;6.22;4.50;;;;;;;21.47;43.55;99289.09;5090817;28;20055;-74
2021/08/25 02:23:38;;;;;;;7.13;5.40;;;;;;;21.75;43.66;99338.25;5090928;28;20063;-74
2021/08/25 02:26:04;;;;;;;9.25;5.22;;;;;;;21.73;43.63;99338.50;5089686;28;20165;-74
2021/08/25 02:28:29;;;;;;;7.85;5.22;;;;;;;21.82;43.77;99363.84;5090997;28;20069;-74
2021/08/25 02:30:55;;;;;;;6.72;5.25;;;;;;;21.23;43.75;99266.31;5090960;28;20111;-75
2021/08/25 02:33:20;;;;;;;6.43;5.50;;;;;;;21.64;43.91;99329.28;5090972;28;20099;-75
2021/08/25 02:35:46;;;;;;;7.18;4.78;;;;;;;21.76;43.98;99346.06;5090794;28;20016;-74
2021/08/25 02:38:12;;;;;;;8.55;5.22;;;;;;;21.51;44.19;99308.19;5090718;28;20481;-75
2021/08/25 02:40:37;;;;;;;5.32;4.82;;;;;;;21.76;44.41;99346.06;5090887;28;20027;-74
2021/08/25 02:43:03;;;;;;;9.52;5.05;;;;;;;21.65;44.46;99333.59;5090897;28;20028;-75
2021/08/25 02:45:28;;;;;;;8.35;5.00;;;;;;;21.72;44.56;99350.31;5090849;28;20035;-75
2021/08/25 02:47:54;;;;;;;6.60;5.38;;;;;;;21.22;44.56;99278.91;5090909;28;20449;-76
2021/08/25 02:50:19;;;;;;;5.60;5.00;;;;;;;21.36;44.95;99319.59;5091032;28;20407;-75
2021/08/25 02:52:45;;;;;;;8.40;5.30;;;;;;;21.62;44.91;99344.03;5090799;28;20016;-74
2021/08/25 02:55:10;;;;;;;8.07;5.72;;;;;;;21.62;44.75;99349.41;5090649;28;20020;-75
2021/08/25 02:57:36;;;;;;;8.90;5.63;;;;;;;21.35;45.07;99306.44;5090562;28;20089;-74
2021/08/25 03:00:04;;;;;;;9.15;5.10;;;;;;;21.60;45.12;99344.31;5090842;28;20020;-74
2021/08/25 03:02:29;;;;;;;9.30;5.60;;;;;;;21.54;45.02;99335.34;5093032;28;20082;-74
2021/08/25 03:04:54;;;;;;;6.95;5.13;;;;;;;21.13;45.02;99271.53;5094289;28;20028;-74
2021/08/25 03:07:20;;;;;;;8.20;5.03;;;;;;;21.61;45.17;99340.53;5094137;28;20074;-74
2021/08/25 03:09:45;;;;;;;8.75;5.10;;;;;;;21.65;44.89;99343.53;5094416;28;20027;-74
2021/08/25 03:12:11;;;;;;;9.52;5.03;;;;;;;21.30;44.99;99293.75;5094307;28;20096;-75
2021/08/25 03:14:36;;;;;;;11.77;5.88;;;;;;;21.56;44.70;99322.50;5094248;28;20020;-74
2021/08/25 03:17:02;;;;;;;8.48;5.63;;;;;;;21.45;44.98;99320.75;5092663;28;20036;-75
2021/08/25 03:19:27;;;;;;;6.20;5.57;;;;;;;21.13;45.38;99296.50;5094072;28;20028;-74
2021/08/25 03:21:52;;;;;;;7.47;5.63;;;;;;;21.15;45.42;99299.75;5093920;28;20385;-75
2021/08/25 03:24:18;;;;;;;6.22;5.63;;;;;;;21.14;45.67;99319.63;5093840;28;20053;-74
2021/08/25 03:26:44;;;;;;;6.43;5.75;;;;;;;21.36;45.83;99361.75;5092329;28;20032;-74
2021/08/25 03:29:09;;;;;;;7.97;5.43;;;;;;;21.02;46.12;99302.84;5093614;28;20031;-74
2021/08/25 03:31:34;;;;;;;6.28;5.65;;;;;;;21.06;45.94;99325.44;5093824;28;20031;-74
2021/08/25 03:34:00;;;;;;;8.93;5.50;;;;;;;20.92;46.40;99314.28;5092412;28;20488;-75
2021/08/25 03:36:25;;;;;;;11.68;6.10;;;;;;;21.19;46.41;99367.19;5092568;28;20056;-75
2021/08/25 03:38:52;;;;;;;7.60;5.50;;;;;;;20.94;46.59;99336.31;5093647;28;20019;-74
2021/08/25 03:41:17;;;;;;;8.00;5.93;;;;;;;20.79;46.62;99319.19;5093682;28;20081;-75
2021/08/25 03:43:42;;;;;;;11.85;6.05;;;;;;;21.07;46.88;99374.56;5093484;28;20028;-74
2021/08/25 03:46:08;;;;;;;7.93;5.65;;;;;;;20.81;47.12;99342.06;5093793;28;20024;-74
2021/08/25 03:48:33;;;;;;;8.43;5.72;;;;;;;21.04;46.88;99373.19;5093545;28;20027;-74
2021/08/25 03:50:59;;;;;;;10.75;6.07;;;;;;;21.07;47.05;99377.25;5093423;28;20393;-74
2021/08/25 03:53:25;;;;;;;6.78;5.60;;;;;;;20.51;47.25;99306.75;5093186;28;20024;-75
2021/08/25 03:55:50;;;;;;;7.47;5.97;;;;;;;20.61;47.36;99331.03;5093301;28;20020;-75
2021/08/25 03:58:16;;;;;;;9.15;6.07;;;;;;;20.94;47.43;99387.31;5093303;28;20023;-74
2021/08/25 04:00:41;;;;;;;8.27;5.40;;;;;;;20.54;47.56;99328.53;5092910;28;20024;-74
2021/08/25 04:03:06;;;;;;;6.80;5.82;;;;;;;20.67;47.70;99350.69;5092774;28;20028;-75
2021/08/25 04:05:32;;;;;;;8.80;5.80;;;;;;;20.48;47.76;99332.19;5093024;28;20112;-75
2021/08/25 04:07:57;;;;;;;10.00;6.28;;;;;;;20.91;47.63;99401.22;5092924;28;20036;-74
2021/08/25 04:10:22;;;;;;;10.70;6.30;;;;;;;20.94;47.73;99402.59;5092991;28;20082;-74
2021/08/25 04:12:48;;;;;;;13.00;6.85;;;;;;;20.54;47.83;99341.13;5091996;28;20078;-74
2021/08/25 04:15:13;;;;;;;13.05;6.70;;;;;;;20.85;47.88;99390.66;5091517;28;20028;-75
2021/08/25 04:17:39;;;;;;;9.82;6.80;;;;;;;20.67;47.83;99370.28;5092797;28;20056;-74
2021/08/25 04:20:05;;;;;;;7.50;6.68;;;;;;;20.97;47.65;99406.66;5092853;28;20028;-74
2021/08/25 04:22:30;;;;;;;12.60;6.80;;;;;;;20.88;47.80;99395.53;5092536;28;20036;-74
2021/08/25 04:24:55;;;;;;;12.18;7.47;;;;;;;20.93;47.79;99396.41;5093170;28;20174;-77
2021/08/25 04:27:23;;;;;;;11.00;7.13;;;;;;;20.85;47.88;99388.78;5092626;28;20393;-76
2021/08/25 04:29:48;;;;;;;11.43;7.10;;;;;;;21.08;47.92;99416.44;5091172;28;20444;-76
2021/08/25 04:32:14;;;;;;;10.98;7.25;;;;;;;21.11;47.91;99419.44;5092500;28;20020;-76
2021/08/25 04:34:39;;;;;;;13.13;7.65;;;;;;;21.06;48.06;99416.69;5092686;28;20024;-76
2021/08/25 04:37:05;;;;;;;11.02;7.20;;;;;;;20.95;48.37;99406.91;5091223;28;20038;-76
2021/08/25 04:39:30;;;;;;;12.38;7.18;;;;;;;21.17;48.34;99434.56;5092425;28;20032;-73
2021/08/25 04:41:56;;;;;;;10.98;6.70;;;;;;;21.24;48.58;99427.16;5092305;28;20024;-74
2021/08/25 04:44:21;;;;;;;10.35;7.45;;;;;;;21.29;48.77;99425.59;5092427;28;20020;-74
2021/08/25 04:46:47;;;;;;;9.85;6.97;;;;;;;21.08;48.70;99378.88;5092402;28;20513;-76
2021/08/25 04:49:13;;;;;;;9.45;6.88;;;;;;;21.21;48.71;99381.97;5091049;28;20102;-75
2021/08/25 04:51:38;;;;;;;9.73;7.20;;;;;;;21.56;48.63;99431.84;5090898;28;20031;-74
2021/08/25 04:54:04;;;;;;;8.90;6.20;;;;;;;21.60;48.84;99411.47;5092184;28;20024;-75
2021/08/25 04:56:29;;;;;;;13.73;8.25;;;;;;;21.14;48.94;99337.59;5090762;28;20028;-75
2021/08/25 04:58:54;;;;;;;9.35;7.18;;;;;;;21.50;49.33;99398.72;5092184;28;20501;-73
2021/08/25 05:01:20;;;;;;;14.15;6.97;;;;;;;21.67;49.32;99417.44;5092242;28;20043;-76
2021/08/25 05:03:45;;;;;;;14.23;8.43;;;;;;;21.47;49.52;99390.34;5090531;28;20094;-74
2021/08/25 05:06:11;;;;;;;13.60;8.05;;;;;;;21.69;49.38;99423.38;5091520;28;20072;-74
2021/08/25 05:08:38;;;;;;;10.02;7.82;;;;;;;21.47;49.95;99399.22;5091830;28;20523;-76
2021/08/25 05:11:04;;;;;;;15.32;9.10;;;;;;;21.80;49.77;99433.16;5091963;28;20035;-74
2021/08/25 05:13:31;;;;;;;15.05;9.13;;;;;;;21.92;50.41;99426.81;5091947;28;20091;-73
2021/08/25 05:15:56;;;;;;;18.15;9.70;;;;;;;21.23;51.27;99317.31;5091849;28;20037;-75
2021/08/25 05:18:21;;;;;;;19.60;10.80;;;;;;;21.93;51.88;99412.31;5091249;28;20602;-75
2021/08/25 05:20:47;;;;;;;24.67;12.02;;;;;;;21.79;52.62;99375.09;5090037;28;20042;-74
2021/08/25 05:23:12;;;;;;;25.27;13.95;;;;;;;21.59;53.75;99347.25;5091546;28;20070;-81
2021/08/25 05:25:38;;;;;;;26.90;14.65;;;;;;;21.65;54.24;99338.97;5090013;28;20089;-81
2021/08/25 05:28:04;;;;;;;27.52;14.90;;;;;;;22.26;54.55;99414.78;5089510;28;20070;-81
2021/08/25 05:30:30;;;;;;;28.40;15.00;;;;;;;21.94;55.15;99349.41;5091350;28;20028;-80
2021/08/25 05:32:55;;;;;;;28.45;14.95;;;;;;;22.06;55.40;99361.66;5091411;28;20058;-81
2021/08/25 05:35:22;;;;;;;33.15;16.13;;;;;;;21.99;56.16;99334.13;5091611;28;20032;-81
2021/08/25 05:37:49;;;;;;;29.23;16.30;;;;;;;22.03;56.59;99340.66;5091561;28;20432;-81
2021/08/25 05:40:16;;;;;;;25.70;15.02;;;;;;;22.60;56.57;99401.03;5088605;28;20528;-81
2021/08/25 05:42:42;;;;;;;26.42;16.05;;;;;;;22.59;56.61;99389.47;5088296;28;20043;-81
2021/08/25 05:45:09;;;;;;;28.52;15.90;;;;;;;22.79;56.57;99404.91;5077382;28;20179;-82
2021/08/25 05:47:35;;;;;;;25.45;15.00;;;;;;;22.86;56.35;99407.41;5083477;28;20032;-81
2021/08/25 05:50:00;;;;;;;29.65;16.08;;;;;;;22.49;56.62;99339.09;5090877;28;20028;-81
2021/08/25 05:52:26;;;;;;;29.52;17.48;;;;;;;23.02;56.66;99409.09;5091049;28;20103;-81
2021/08/25 05:54:51;;;;;;;26.02;15.63;;;;;;;22.88;56.76;99368.38;5091038;28;20470;-82
2021/08/25 05:57:17;;;;;;;28.02;15.95;;;;;;;22.94;56.79;99367.34;5089800;28;20449;-81
2021/08/25 05:59:42;;;;;;;28.00;15.75;;;;;;;22.87;56.66;99330.97;5089412;28;20036;-81
2021/08/25 06:02:07;;;;;;;24.55;15.73;;;;;;;22.61;56.57;99271.63;5091035;28;20043;-83
2021/08/25 06:04:33;;;;;;;27.25;15.45;;;;;;;23.27;56.42;99359.94;5091111;28;20028;-83
2021/08/25 06:06:58;;;;;;;28.20;16.98;;;;;;;23.18;56.54;99324.63;5090998;28;20028;-81
2021/08/25 06:09:24;;;;;;;29.67;17.00;;;;;;;23.53;56.50;99371.56;5089801;28;20028;-82
2021/08/25 06:11:49;;;;;;;29.90;19.02;;;;;;;23.38;56.59;99323.84;5090668;28;20050;-81
2021/08/25 06:14:14;;;;;;;28.30;17.52;;;;;;;23.73;57.03;99374.31;5089415;28;20518;-82
2021/08/25 06:16:42;;;;;;;21.52;17.60;;;;;;;23.76;57.52;99390.78;5082953;28;20031;-81
2021/08/25 06:19:08;;;;;;;23.00;17.95;;;;;;;23.68;57.58;99344.66;5080410;28;21301;-82
2021/08/25 06:21:33;;;;;;;24.45;18.15;;;;;;;23.65;57.75;99332.53;5084659;28;20550;-82
2021/08/25 06:23:59;;;;;;;19.65;17.50;;;;;;;23.89;57.62;99367.91;5086109;28;20077;-77
2021/08/25 06:26:24;;;;;;;20.52;16.48;;;;;;;23.88;57.57;99360.06;5085968;28;20024;-77
2021/08/25 06:28:50;;;;;;;20.08;16.48;;;;;;;24.00;57.73;99385.69;5073665;28;20032;-77
2021/08/25 06:31:15;;;;;;;23.48;16.85;;;;;;;23.59;57.88;99313.94;5075806;28;20038;-75
2021/08/25 06:33:41;;;;;;;30.90;26.77;;;;;;;23.99;58.01;99373.28;5073738;28;20063;-75
2021/08/25 06:36:06;;;;;;;25.35;18.80;;;;;;;23.96;58.35;99389.19;5088092;28;20512;-76
2021/08/25 06:38:31;;;;;;;20.13;17.58;;;;;;;23.55;58.34;99313.66;5091219;28;20028;-76
2021/08/25 06:40:57;;;;;;;20.25;16.10;;;;;;;23.84;58.40;99359.00;5093555;28;20141;-76
2021/08/25 06:43:22;;;;;;;19.55;15.90;;;;;;;23.31;58.31;99277.50;5092931;28;20032;-76
2021/08/25 06:45:48;;;;;;;19.58;15.80;;;;;;;23.83;58.89;99368.16;5093826;28;20074;-75
2021/08/25 06:48:13;;;;;;;16.95;14.75;;;;;;;23.80;58.77;99355.22;5093783;28;20143;-75
2021/08/25 06:50:38;;;;;;;23.55;17.20;;;;;;;23.80;58.53;99342.53;5092796;28;20027;-76
2021/08/25 06:53:04;;;;;;;20.08;15.05;;;;;;;23.61;58.51;99315.28;5092655;28;20475;-76
2021/08/25 06:55:29;;;;;;;17.58;14.05;;;;;;;23.42;58.28;99271.03;5092321;28;20461;-75
2021/08/25 06:57:54;;;;;;;15.35;12.82;;;;;;;24.03;57.65;99347.41;5090334;28;20024;-76
2021/08/25 07:00:20;;;;;;;19.02;14.75;;;;;;;24.31;57.65;99366.81;5094297;28;20024;-75
2021/08/25 07:02:45;;;;;;;20.13;13.55;;;;;;;23.90;57.31;99298.59;5091681;28;20078;-75
2021/08/25 07:05:11;;;;;;;15.13;12.05;;;;;;;24.52;56.72;99368.41;5093885;28;20032;-76
2021/08/25 07:07:36;;;;;;;13.80;11.75;;;;;;;24.20;56.27;99311.22;5092355;28;20035;-75
2021/08/25 07:10:03;;;;;;;18.20;13.00;;;;;;;24.72;56.18;99364.84;5092384;28;20032;-81
2021/08/25 07:12:28;;;;;;;15.07;12.95;;;;;;;24.15;56.07;99276.97;5093872;28;20024;-81
2021/08/25 07:14:54;;;;;;;15.75;11.85;;;;;;;24.74;55.82;99356.47;5092534;28;20032;-80
2021/08/25 07:17:20;;;;;;;14.73;12.50;;;;;;;24.84;55.64;99359.16;5091508;28;20085;-80
2021/08/25 07:19:46;;;;;;;13.15;11.00;;;;;;;24.34;54.87;99275.34;5094433;28;20046;-80
2021/08/25 07:22:11;;;;;;;17.40;12.13;;;;;;;24.91;54.87;99355.06;5093161;28;20477;-81
2021/08/25 07:24:37;;;;;;;13.60;11.75;;;;;;;24.52;54.88;99282.03;5093672;28;20541;-80
2021/08/25 07:27:03;;;;;;;14.30;11.93;;;;;;;24.58;54.13;99261.25;5087121;28;20593;-81
2021/08/25 07:29:28;;;;;;;12.77;10.95;;;;;;;25.14;54.20;99336.63;5086418;28;20036;-80
2021/08/25 07:31:54;;;;;;;13.68;10.88;;;;;;;25.28;53.68;99335.75;5088920;28;20050;-81
2021/08/25 07:34:19;;;;;;;11.93;10.75;;;;;;;25.43;53.33;99358.38;5079812;28;20473;-81
2021/08/25 07:36:44;;;;;;;11.93;10.40;;;;;;;25.12;53.33;99290.16;5075706;28;20032;-81
2021/08/25 07:39:10;;;;;;;11.60;9.90;;;;;;;25.65;52.90;99350.66;5090303;28;20032;-80
2021/08/25 07:41:35;;;;;;;14.02;12.35;;;;;;;25.27;52.74;99273.88;5091762;28;20035;-81
2021/08/25 07:44:01;;;;;;;17.75;15.95;;;;;;;25.40;52.56;99275.13;5081299;28;20115;-82
2021/08/25 07:46:32;;;;;;;15.23;13.68;;;;;;;25.70;52.38;99301.97;5081520;28;20397;-79
2021/08/25 07:49:02;;;;;;;14.05;10.65;;;;;;;26.12;51.78;99344.63;5091231;28;20111;-82
2021/08/25 07:51:28;;;;;;;12.57;10.33;;;;;;;25.90;51.15;99290.97;5090543;28;20035;-81
2021/08/25 07:53:54;;;;;;;12.57;10.40;;;;;;;26.25;51.02;99333.13;5091194;28;20036;-81
2021/08/25 07:56:19;;;;;;;12.48;10.20;;;;;;;25.86;50.60;99265.56;5108191;28;20061;-81
2021/08/25 07:58:45;;;;;;;14.75;10.82;;;;;;;25.90;50.41;99263.91;5100652;28;20032;-81
2021/08/25 08:01:11;;;;;;;13.88;11.15;;;;;;;26.38;50.59;99314.63;5091384;28;20403;-81
2021/08/25 08:03:36;;;;;;;11.23;10.10;;;;;;;26.27;50.22;99287.66;5090445;28;20040;-81
2021/08/25 08:06:01;;;;;;;13.32;10.73;;;;;;;26.74;49.71;99355.66;5091810;28;20028;-81
2021/08/25 08:08:27;;;;;;;12.65;10.30;;;;;;;26.77;49.47;99349.69;5108025;28;20065;-81
2021/08/25 08:10:52;;;;;;;11.82;10.35;;;;;;;26.69;49.26;99309.66;5109884;28;20492;-81
2021/08/25 08:13:18;;;;;;;12.80;10.05;;;;;;;26.95;48.80;99327.25;5104653;28;20103;-81
2021/08/25 08:15:44;;;;;;;13.35;8.98;;;;;;;26.85;48.31;99308.41;5093288;28;20063;-81
2021/08/25 08:18:12;;;;;;;14.02;9.15;;;;;;;26.74;48.16;99267.06;5077226;28;20047;-81
2021/08/25 08:20:37;;;;;;;12.98;10.73;;;;;;;26.63;47.58;99243.94;5099054;28;20042;-81
2021/08/25 08:23:03;;;;;;;9.88;7.57;;;;;;;26.93;47.22;99277.97;5094974;28;20481;-75
2021/08/25 08:25:28;;;;;;;9.80;8.13;;;;;;;27.11;46.50;99276.38;5100943;28;20081;-76
2021/08/25 08:27:54;;;;;;;9.85;8.43;;;;;;;27.65;45.85;99342.88;5106500;28;20024;-76
2021/08/25 08:30:19;;;;;;;11.65;9.50;;;;;;;27.74;45.73;99335.69;5103040;28;20047;-76
2021/08/25 08:32:45;;;;;;;13.82;9.70;;;;;;;27.62;45.47;99300.06;5087356;28;20028;-76
2021/08/25 08:35:10;;;;;;;10.32;7.97;;;;;;;27.89;44.23;99321.84;5087865;28;20071;-76
2021/08/25 08:37:36;;;;;;;13.55;8.63;;;;;;;28.07;42.68;99333.75;5088597;28;20023;-76
2021/08/25 08:40:04;;;;;;;11.80;7.35;;;;;;;28.16;41.28;99326.53;5086376;28;20485;-74
2021/08/25 08:42:31;;;;;;;13.00;8.10;;;;;;;28.24;40.66;99328.63;5088393;28;20043;-77
2021/08/25 08:44:57;;;;;;;13.52;10.25;;;;;;;28.08;40.44;99310.94;5086923;28;20646;-76
2021/08/25 08:47:28;;;;;;;11.57;10.15;;;;;;;28.40;40.50;99319.09;5083043;28;20189;-76
2021/08/25 08:49:55;;;;;;;10.93;7.97;;;;;;;28.40;39.37;99302.00;5084641;28;20548;-75
2021/08/25 08:52:21;;;;;;;11.20;7.95;;;;;;;28.27;38.32;99260.16;5091371;28;20027;-76
2021/08/25 08:54:50;;;;;;;12.20;9.10;;;;;;;28.59;38.34;99285.59;5091533;28;20042;-75
2021/08/25 08:57:15;;;;;;;11.65;7.65;;;;;;;28.59;37.48;99282.88;5091094;28;20059;-75
2021/08/25 08:59:41;;;;;;;10.82;8.18;;;;;;;28.48;36.82;99260.53;5088430;28;20132;-75
2021/08/25 09:02:06;;;;;;;12.07;7.80;;;;;;;28.78;36.30;99291.69;5086748;28;20031;-75
2021/08/25 09:04:36;;;;;;;9.45;7.43;;;;;;;29.10;36.40;99302.47;5089057;28;20115;-73
2021/08/25 09:07:03;;;;;;;10.20;7.13;;;;;;;29.25;36.15;99311.38;5089246;28;20389;-75
2021/08/25 09:09:58;;;;;;;8.73;6.05;;;;;;;29.24;34.85;99285.31;5077488;28;20133;-76
2021/08/25 09:12:24;;;;;;;7.72;5.82;;;;;;;29.41;35.13;99259.06;5092879;28;20027;-76
2021/08/25 09:14:50;;;;;;;10.15;9.15;;;;;;;29.53;35.44;99242.19;5090875;28;20039;-74
2021/08/25 09:17:29;;;;;;;10.65;7.47;;;;;;;29.97;35.18;99265.84;5091003;28;20069;-76
2021/08/25 09:20:08;;;;;;;12.25;9.30;;;;;;;30.14;35.03;99258.91;5087986;28;20097;-75
2021/08/25 09:22:34;;;;;;;12.25;9.65;;;;;;;30.29;34.49;99259.28;5091560;28;20069;-75
2021/08/25 09:25:00;;;;;;;11.25;9.00;;;;;;;30.44;34.84;99271.66;5091124;28;20113;-80
2021/08/25 09:27:25;;;;;;;10.13;8.80;;;;;;;30.25;34.38;99203.84;5090148;28;20455;-81
2021/08/25 09:29:57;;;;;;;15.55;11.55;;;;;;;30.45;33.93;99209.81;5089925;28;20482;-81
2021/08/25 09:32:24;;;;;;;10.25;8.35;;;;;;;30.63;33.22;99227.88;5089297;28;20042;-81
2021/08/25 09:34:58;;;;;;;12.15;9.45;;;;;;;30.47;32.86;99167.53;5090144;28;20035;-81
2021/08/25 09:37:25;;;;;;;15.98;9.10;;;;;;;31.13;32.20;99241.03;5093292;28;20102;-81
2021/08/25 09:39:53;;;;;;;12.52;11.23;;;;;;;31.33;32.38;99236.91;5089058;28;20480;-81
2021/08/25 09:42:21;;;;;;;13.18;8.55;;;;;;;30.92;31.71;99162.63;5090896;28;20093;-82
2021/08/25 09:44:59;;;;;;;24.70;20.70;;;;;;;31.21;31.88;99188.44;5080907;28;20027;-81
2021/08/25 09:47:55;;;;;;;15.70;13.70;;;;;;;31.67;31.92;99241.50;5087839;28;20038;-82
2021/08/25 09:50:23;;;;;;;18.15;13.73;;;;;;;31.70;31.88;99241.69;5081782;28;20096;-82
2021/08/25 09:52:49;;;;;;;15.15;12.98;;;;;;;31.70;31.85;99208.13;5085130;28;20459;-82
2021/08/25 09:55:16;;;;;;;16.85;15.05;;;;;;;31.96;32.13;99219.78;5086929;28;20036;-83
2021/08/25 09:57:44;;;;;;;22.83;20.40;;;;;;;31.92;31.77;99175.13;5084804;28;20024;-81
2021/08/25 10:00:12;;;;;;;16.25;11.95;;;;;;;32.09;31.28;99196.13;5087194;28;20485;-80
2021/08/25 10:02:39;;;;;;;16.83;13.35;;;;;;;32.37;31.10;99226.53;5089549;28;20114;-78
2021/08/25 10:05:05;;;;;;;15.38;13.77;;;;;;;32.51;31.13;99216.16;5087630;28;20016;-81
2021/08/25 10:07:30;;;;;;;15.27;13.13;;;;;;;32.56;30.37;99229.63;5088774;28;20038;-81
2021/08/25 10:09:56;;;;;;;20.98;18.70;;;;;;;32.71;30.15;99222.81;5085798;28;20020;-82
2021/08/25 10:12:22;;;;;;;14.38;12.93;;;;;;;32.89;29.24;99231.72;5086189;28;20028;-82
2021/08/25 10:14:48;;;;;;;12.20;10.93;;;;;;;33.01;29.17;99223.59;5093425;28;20480;-82
2021/08/25 10:17:37;;;;;;;12.02;10.82;;;;;;;33.06;28.23;99204.22;5092352;28;20028;-82
2021/08/25 10:20:25;;;;;;;15.43;13.85;;;;;;;33.42;28.01;99218.06;5093135;28;20016;-81
2021/08/25 10:22:53;;;;;;;11.90;10.52;;;;;;;33.42;28.01;99215.34;5091767;28;20061;-81
2021/08/25 10:25:18;;;;;;;11.27;9.23;;;;;;;33.13;27.57;99142.38;5084433;28;20115;-81
2021/08/25 10:28:01;;;;;;;13.30;11.93;;;;;;;33.73;25.88;99178.47;5074490;28;20485;-80
2021/08/25 10:30:27;;;;;;;17.27;15.45;;;;;;;34.08;26.91;99215.28;5086233;28;20027;-82
2021/08/25 10:32:52;;;;;;;12.30;11.00;;;;;;;34.28;26.03;99204.56;5092994;28;20008;-81
2021/08/25 10:35:23;;;;;;;8.38;7.00;;;;;;;34.47;25.59;99204.81;5074676;28;20099;-81
2021/08/25 10:37:50;;;;;;;6.97;6.10;;;;;;;34.60;24.46;99194.63;5082537;28;20054;-82
2021/08/25 10:40:18;;;;;;;15.60;13.95;;;;;;;33.84;24.46;99099.44;5092223;28;20027;-80
2021/08/25 10:42:55;;;;;;;20.58;17.17;;;;;;;34.57;24.63;99198.84;5089817;28;20024;-81
2021/08/25 10:45:43;;;;;;;12.45;11.15;;;;;;;34.77;24.28;99199.03;5094940;28;20030;-82
2021/08/25 10:48:09;;;;;;;11.48;10.02;;;;;;;34.44;24.38;99127.94;5091304;28;20023;-81
2021/08/25 10:50:55;;;;;;;7.95;7.15;;;;;;;34.97;23.42;99196.16;5098928;28;20027;-82
2021/08/25 10:53:29;;;;;;;7.93;6.13;;;;;;;34.95;24.01;99195.72;5114458;28;20094;-82
2021/08/25 10:56:15;;;;;;;8.70;7.80;;;;;;;35.02;24.32;99203.34;5111724;28;20047;-81
2021/08/25 10:58:48;;;;;;;7.30;6.25;;;;;;;35.14;23.59;99192.31;5088782;28;20426;-82
2021/08/25 11:01:33;;;;;;;6.40;5.60;;;;;;;35.30;23.29;99195.91;5088966;28;20036;-81
2021/08/25 11:04:00;;;;;;;8.93;6.28;;;;;;;35.40;23.26;99200.13;5090630;28;20035;-81
2021/08/25 11:06:28;;;;;;;8.30;6.25;;;;;;;35.45;23.49;99202.59;5092972;28;20103;-82
2021/08/25 11:09:08;;;;;;;7.97;7.18;;;;;;;35.58;23.46;99192.34;5093209;28;20024;-82
2021/08/25 11:11:33;;;;;;;8.32;5.82;;;;;;;35.72;23.15;99186.44;5094132;28;20024;-81
2021/08/25 11:13:59;;;;;;;8.48;6.20;;;;;;;35.86;23.12;99176.63;5088005;28;20081;-80
2021/08/25 11:16:25;;;;;;;7.60;5.43;;;;;;;35.96;22.63;99165.09;5090503;28;20114;-81
2021/08/25 11:18:51;;;;;;;7.45;6.10;;;;;;;35.61;22.67;99112.78;5092103;28;20028;-81
2021/08/25 11:21:16;;;;;;;7.20;5.68;;;;;;;35.53;22.71;99108.28;5086773;28;20112;-80
2021/08/25 11:23:55;;;;;;;6.78;5.50;;;;;;;35.70;22.50;99128.31;5092366;28;20028;-80
2021/08/25 11:26:20;;;;;;;7.45;6.57;;;;;;;36.02;22.55;99156.59;5084770;28;20028;-78